Time;durP1;ratioP1;P1;durP2;ratioP2;P2;SDS_P1;SDS_P2;PMS_P1;PMS_P2;Temp;Humidity;BMP_temperature;BMP_pressure;BME280_temperature;BME280_humidity;BME280_pressure;Samples;Min_cycle;Max_cycle;Signal;HPM_P1;HPM_P2
2021/06/14 00:01:01;;;;;;;5.30;2.10;;;;;;;;;;5097974;28;20462;-77
2021/06/14 00:03:27;;;;;;;6.55;2.13;;;;;;;;;;5097921;28;20024;-78
2021/06/14 00:05:53;;;;;;;6.32;1.90;;;;;;;;;;5098015;28;20020;-77
2021/06/14 00:08:20;;;;;;;4.45;1.88;;;;;;;;;;5096972;28;20477;-77
2021/06/14 00:10:51;;;;;;;9.77;2.15;;;;;;;;;;5098075;28;20024;-77
2021/06/14 00:13:18;;;;;;;5.20;2.00;;;;;;;;;;5098148;28;20133;-77
2021/06/14 00:15:45;;;;;;;7.40;1.85;;;;;;;;;;5097743;28;20313;-77
2021/06/14 00:18:11;;;;;;;5.70;1.90;;;;;;;;;;5097716;28;20032;-77
2021/06/14 00:20:38;;;;;;;4.85;2.30;;;;;;;;;;5097711;28;20317;-78
2021/06/14 00:23:04;;;;;;;8.48;2.05;;;;;;;;;;5079808;28;20039;-77
2021/06/14 00:25:32;;;;;;;5.70;1.65;;;;;;;;;;5097923;28;20028;-77
2021/06/14 00:27:58;;;;;;;5.78;2.00;;;;;;;;;;5097812;28;20037;-77
2021/06/14 00:30:37;;;;;;;4.38;2.05;;;;;;;;;;5097505;28;20110;-77
2021/06/14 00:33:03;;;;;;;6.60;2.10;;;;;;;;;;5097390;28;20414;-77
2021/06/14 00:35:29;;;;;;;5.07;1.88;;;;;;;;;;5096411;28;20032;-77
2021/06/14 00:37:55;;;;;;;5.60;1.67;;;;;;;;;;5097326;28;20061;-78
2021/06/14 00:40:21;;;;;;;3.47;1.48;;;;;;;;;;5096439;28;20032;-78
2021/06/14 00:42:47;;;;;;;5.50;1.60;;;;;;;;;;5097463;28;20024;-77
2021/06/14 00:45:16;;;;;;;9.07;2.17;;;;;;;;;;5097199;28;20031;-77
2021/06/14 00:47:45;;;;;;;5.38;1.90;;;;;;;;;;5097083;28;20123;-79
2021/06/14 00:50:12;;;;;;;7.55;1.58;;;;;;;;;;5097424;28;20322;-78
2021/06/14 00:52:39;;;;;;;5.25;1.80;;;;;;;;;;5097400;28;20027;-78
2021/06/14 00:55:07;;;;;;;4.20;2.00;;;;;;;;;;5097159;28;20475;-78
2021/06/14 00:57:33;;;;;;;3.13;1.90;;;;;;;;;;5097219;28;20039;-78
2021/06/14 00:59:59;;;;;;;3.53;1.65;;;;;;;;;;5097156;28;20034;-78
2021/06/14 01:02:25;;;;;;;4.38;1.98;;;;;;;;;;5096607;28;20028;-78
2021/06/14 01:04:51;;;;;;;5.68;1.63;;;;;;;;;;5097217;28;20429;-77
2021/06/14 01:07:17;;;;;;;7.00;2.20;;;;;;;;;;5097004;28;20324;-77
2021/06/14 01:09:43;;;;;;;3.10;1.52;;;;;;;;;;5097351;28;20028;-77
2021/06/14 01:12:12;;;;;;;3.88;1.88;;;;;;;;;;5097099;28;20070;-77
2021/06/14 01:14:50;;;;;;;7.13;2.00;;;;;;;;;;5097104;28;20059;-78
2021/06/14 01:17:20;;;;;;;5.30;2.10;;;;;;;;;;5096968;28;20487;-77
2021/06/14 01:20:05;;;;;;;6.03;2.00;;;;;;;;;;5098857;28;20028;-77
2021/06/14 01:23:00;;;;;;;4.32;2.08;;;;;;;;;;5101394;28;20069;-78
2021/06/14 01:25:30;;;;;;;7.00;2.53;;;;;;;;;;5078883;28;20044;-77
2021/06/14 01:27:57;;;;;;;8.60;2.28;;;;;;;;;;5078586;28;20488;-78
2021/06/14 01:30:28;;;;;;;6.90;2.22;;;;;;;;;;5078965;28;20430;-78
2021/06/14 01:32:54;;;;;;;5.10;2.30;;;;;;;;;;5078717;28;20064;-77
2021/06/14 01:35:23;;;;;;;6.38;3.17;;;;;;;;;;5078769;28;20032;-77
2021/06/14 01:37:54;;;;;;;4.38;2.42;;;;;;;;;;5078702;28;20035;-77
2021/06/14 01:40:21;;;;;;;7.72;2.40;;;;;;;;;;5078668;28;20025;-78
2021/06/14 01:42:52;;;;;;;8.38;2.65;;;;;;;;;;5061656;28;20127;-78
2021/06/14 01:45:18;;;;;;;7.93;2.90;;;;;;;;;;5078492;28;20028;-77
2021/06/14 01:47:46;;;;;;;5.78;2.55;;;;;;;;;;5078211;28;20119;-77
2021/06/14 01:50:13;;;;;;;6.32;2.63;;;;;;;;;;5078439;28;20025;-77
2021/06/14 01:52:39;;;;;;;4.50;2.50;;;;;;;;;;5078324;28;20158;-76
2021/06/14 01:55:06;;;;;;;6.88;2.33;;;;;;;;;;5078394;28;20035;-76
2021/06/14 01:57:34;;;;;;;5.70;2.47;;;;;;;;;;5061250;28;20084;-76
2021/06/14 02:00:00;;;;;;;5.10;2.40;;;;;;;;;;5078262;28;20024;-77
2021/06/14 02:02:28;;;;;;;5.78;2.25;;;;;;;;;;5095207;28;20040;-76
2021/06/14 02:04:55;;;;;;;3.15;2.15;;;;;;;;;;5099434;28;20040;-77
2021/06/14 02:07:22;;;;;;;7.13;2.72;;;;;;;;;;5100309;28;20141;-76
2021/06/14 02:09:48;;;;;;;5.32;2.53;;;;;;;;;;5100154;28;20086;-77
2021/06/14 02:12:14;;;;;;;4.85;2.58;;;;;;;;;;5100219;28;20066;-77
2021/06/14 02:14:41;;;;;;;5.32;2.50;;;;;;;;;;5100171;28;20026;-77
2021/06/14 02:17:08;;;;;;;4.78;2.50;;;;;;;;;;5100270;28;20028;-77
2021/06/14 02:19:37;;;;;;;6.90;2.53;;;;;;;;;;5100067;28;20073;-77
2021/06/14 02:22:04;;;;;;;5.97;2.25;;;;;;;;;;5098976;28;20024;-77
2021/06/14 02:24:30;;;;;;;4.00;2.30;;;;;;;;;;5099879;28;20031;-77
2021/06/14 02:26:56;;;;;;;5.38;2.70;;;;;;;;;;5099955;28;20032;-77
2021/06/14 02:29:22;;;;;;;5.70;2.55;;;;;;;;;;5098811;28;20024;-77
2021/06/14 02:31:48;;;;;;;6.57;2.88;;;;;;;;;;5097931;28;20402;-77
2021/06/14 02:34:14;;;;;;;3.65;2.90;;;;;;;;;;5099770;28;20096;-76
2021/06/14 02:36:40;;;;;;;7.78;3.28;;;;;;;;;;5099643;28;20480;-76
2021/06/14 02:39:09;;;;;;;6.90;2.83;;;;;;;;;;5099603;28;20028;-76
2021/06/14 02:41:36;;;;;;;8.05;3.00;;;;;;;;;;5099588;28;20149;-76
2021/06/14 02:44:05;;;;;;;5.47;3.00;;;;;;;;;;5099530;28;20032;-76
2021/06/14 02:46:33;;;;;;;5.63;3.05;;;;;;;;;;5099463;28;20119;-76
2021/06/14 02:48:59;;;;;;;4.30;2.90;;;;;;;;;;5099396;28;20027;-76
2021/06/14 02:51:25;;;;;;;8.23;3.05;;;;;;;;;;5099336;28;20316;-77
2021/06/14 02:54:04;;;;;;;7.10;2.75;;;;;;;;;;5099378;28;20023;-77
2021/06/14 02:56:35;;;;;;;5.80;2.70;;;;;;;;;;5098238;28;20034;-77
2021/06/14 02:59:02;;;;;;;9.30;3.17;;;;;;;;;;5099408;28;20047;-77
2021/06/14 03:01:30;;;;;;;10.93;3.30;;;;;;;;;;5099226;28;20016;-77
2021/06/14 03:03:57;;;;;;;11.15;3.25;;;;;;;;;;5099193;28;20309;-77
2021/06/14 03:06:23;;;;;;;8.73;2.90;;;;;;;;;;5099224;28;20013;-77
2021/06/14 03:08:50;;;;;;;5.82;3.08;;;;;;;;;;5098998;28;20410;-77
2021/06/14 03:11:17;;;;;;;5.30;3.10;;;;;;;;;;5099058;28;20042;-78
2021/06/14 03:13:44;;;;;;;9.88;3.40;;;;;;;;;;5099055;28;20409;-79
2021/06/14 03:16:13;;;;;;;4.68;2.95;;;;;;;;;;5097842;28;20040;-78
2021/06/14 03:18:40;;;;;;;7.65;2.90;;;;;;;;;;5097728;28;20379;-78
2021/06/14 03:21:07;;;;;;;6.75;3.10;;;;;;;;;;5098817;28;20016;-78
2021/06/14 03:23:33;;;;;;;4.40;2.60;;;;;;;;;;5098849;28;20081;-78
2021/06/14 03:25:59;;;;;;;7.65;3.28;;;;;;;;;;5098552;28;20181;-78
2021/06/14 03:28:26;;;;;;;8.90;3.45;;;;;;;;;;5098842;28;20076;-76
2021/06/14 03:30:52;;;;;;;8.30;3.10;;;;;;;;;;5098637;28;20027;-76
2021/06/14 03:33:19;;;;;;;8.82;3.03;;;;;;;;;;5098614;28;20016;-76
2021/06/14 03:35:46;;;;;;;7.03;2.78;;;;;;;;;;5098594;28;20031;-76
2021/06/14 03:38:12;;;;;;;5.93;3.00;;;;;;;;;;5098514;28;20024;-77
2021/06/14 03:40:38;;;;;;;8.00;3.33;;;;;;;;;;5098467;28;20048;-77
2021/06/14 03:43:05;;;;;;;11.10;3.05;;;;;;;;;;5098310;28;20021;-77
2021/06/14 03:45:33;;;;;;;7.40;2.97;;;;;;;;;;5098329;28;20055;-77
2021/06/14 03:47:59;;;;;;;8.43;3.30;;;;;;;;;;5098002;28;20123;-77
2021/06/14 03:50:25;;;;;;;9.80;3.08;;;;;;;;;;5098359;28;20046;-77
2021/06/14 03:52:51;;;;;;;5.45;3.00;;;;;;;;;;5098262;28;20239;-77
2021/06/14 03:55:18;;;;;;;5.25;2.67;;;;;;;;;;5098093;28;20061;-77
2021/06/14 03:57:44;;;;;;;6.22;2.78;;;;;;;;;;5098397;28;20044;-77
2021/06/14 04:00:11;;;;;;;8.10;2.92;;;;;;;;;;5098135;28;20024;-77
2021/06/14 04:02:37;;;;;;;7.38;2.88;;;;;;;;;;5097965;28;20028;-77
2021/06/14 04:05:05;;;;;;;6.55;2.33;;;;;;;;;;5096933;28;20028;-77
2021/06/14 04:07:32;;;;;;;7.18;3.05;;;;;;;;;;5088671;28;20044;-77
2021/06/14 04:10:01;;;;;;;5.90;2.65;;;;;;;;;;5093653;28;20027;-78
2021/06/14 04:12:27;;;;;;;10.77;2.85;;;;;;;;;;5084910;28;20314;-77
2021/06/14 04:14:54;;;;;;;6.00;2.35;;;;;;;;;;5085400;28;20101;-77
2021/06/14 04:17:20;;;;;;;5.95;2.45;;;;;;;;;;5079696;28;20048;-77
2021/06/14 04:19:46;;;;;;;7.88;3.00;;;;;;;;;;5098377;28;20062;-77
2021/06/14 04:22:12;;;;;;;9.02;2.92;;;;;;;;;;5118089;28;20032;-77
2021/06/14 04:24:38;;;;;;;7.03;3.00;;;;;;;;;;5105122;28;20078;-77
2021/06/14 04:27:05;;;;;;;10.23;2.80;;;;;;;;;;5097525;28;20032;-77
2021/06/14 04:29:31;;;;;;;6.65;2.78;;;;;;;;;;5097657;28;20061;-78
2021/06/14 04:31:58;;;;;;;8.88;2.80;;;;;;;;;;5097668;28;20321;-78
2021/06/14 04:34:24;;;;;;;5.65;2.60;;;;;;;;;;5094425;28;20100;-76
2021/06/14 04:36:50;;;;;;;6.55;2.60;;;;;;;;;;5080882;28;20493;-85
2021/06/14 04:39:16;;;;;;;8.05;3.15;;;;;;;;;;5086686;28;20072;-85
2021/06/14 04:41:43;;;;;;;12.93;2.80;;;;;;;;;;5097003;28;20448;-85
2021/06/14 04:44:09;;;;;;;8.90;3.03;;;;;;;;;;5098054;28;20047;-85
2021/06/14 04:46:35;;;;;;;7.90;2.60;;;;;;;;;;5096635;28;20040;-85
2021/06/14 04:49:01;;;;;;;6.47;2.63;;;;;;;;;;5097711;28;20028;-86
2021/06/14 04:51:27;;;;;;;5.07;2.47;;;;;;;;;;5097833;28;20023;-86
2021/06/14 04:53:53;;;;;;;7.25;3.22;;;;;;;;;;5097261;28;20020;-86
2021/06/14 04:56:19;;;;;;;8.27;2.53;;;;;;;;;;5097533;28;20237;-85
2021/06/14 04:58:45;;;;;;;7.28;3.13;;;;;;;;;;5097856;28;20024;-86
2021/06/14 05:01:12;;;;;;;9.25;3.28;;;;;;;;;;5097967;28;20120;-86
2021/06/14 05:03:38;;;;;;;8.35;3.20;;;;;;;;;;5096733;28;20032;-86
2021/06/14 05:06:04;;;;;;;8.32;2.72;;;;;;;;;;5097689;28;20058;-86
2021/06/14 05:08:30;;;;;;;6.28;2.72;;;;;;;;;;5097560;28;20414;-85
2021/06/14 05:10:56;;;;;;;9.43;2.97;;;;;;;;;;5097789;28;20020;-86
2021/06/14 05:13:22;;;;;;;6.05;2.65;;;;;;;;;;5096666;28;20031;-86
2021/06/14 05:15:48;;;;;;;8.52;3.00;;;;;;;;;;5096751;28;20046;-86
2021/06/14 05:18:14;;;;;;;9.73;2.97;;;;;;;;;;5097330;28;20317;-86
2021/06/14 05:20:41;;;;;;;8.73;2.85;;;;;;;;;;5097458;28;20020;-86
2021/06/14 05:23:07;;;;;;;9.57;3.42;;;;;;;;;;5096514;28;20024;-85
2021/06/14 05:25:34;;;;;;;8.98;2.92;;;;;;;;;;5097833;28;20119;-85
2021/06/14 05:28:00;;;;;;;6.82;2.80;;;;;;;;;;5097635;28;20081;-86
2021/06/14 05:30:26;;;;;;;7.80;2.60;;;;;;;;;;5097332;28;20023;-86
2021/06/14 05:32:53;;;;;;;10.60;2.83;;;;;;;;;;5097414;28;20470;-86
2021/06/14 05:35:19;;;;;;;7.25;2.63;;;;;;;;;;5097495;28;20028;-86
2021/06/14 05:37:47;;;;;;;7.25;2.58;;;;;;;;;;5097302;28;20020;-86
2021/06/14 05:40:13;;;;;;;6.60;2.50;;;;;;;;;;5097349;28;20032;-85
2021/06/14 05:42:39;;;;;;;7.72;3.25;;;;;;;;;;5096370;28;20035;-86
2021/06/14 05:45:06;;;;;;;9.00;2.22;;;;;;;;;;5096007;28;20071;-86
2021/06/14 05:47:32;;;;;;;9.15;2.78;;;;;;;;;;5096055;28;20490;-86
2021/06/14 05:49:58;;;;;;;7.55;3.03;;;;;;;;;;5097382;28;20373;-86
2021/06/14 05:52:24;;;;;;;9.00;2.72;;;;;;;;;;5097208;28;20024;-86
2021/06/14 05:54:51;;;;;;;7.88;3.10;;;;;;;;;;5097111;28;20017;-86
2021/06/14 05:57:17;;;;;;;7.32;2.60;;;;;;;;;;5097338;28;20077;-86
2021/06/14 05:59:43;;;;;;;7.93;2.90;;;;;;;;;;5097058;28;20032;-86
2021/06/14 06:02:09;;;;;;;9.07;3.25;;;;;;;;;;5097272;28;20024;-85
2021/06/14 06:04:35;;;;;;;8.82;3.53;;;;;;;;;;5096920;28;20020;-87
2021/06/14 06:07:01;;;;;;;20.27;12.85;;;;;;;;;;5099309;28;20107;-87
2021/06/14 06:09:27;;;;;;;13.02;6.13;;;;;;;;;;5101014;28;20028;-87
2021/06/14 06:11:53;;;;;;;34.95;22.45;;;;;;;;;;5101053;28;20017;-87
2021/06/14 06:14:20;;;;;;;21.55;11.20;;;;;;;;;;5100695;28;20044;-87
2021/06/14 06:16:46;;;;;;;15.88;10.73;;;;;;;;;;5099736;28;20089;-87
2021/06/14 06:19:12;;;;;;;18.95;11.68;;;;;;;;;;5100692;28;20031;-88
2021/06/14 06:21:38;;;;;;;14.30;8.10;;;;;;;;;;5100868;28;20027;-87
2021/06/14 06:24:05;;;;;;;10.88;6.15;;;;;;;;;;5100566;28;20065;-87
2021/06/14 06:26:31;;;;;;;12.25;5.88;;;;;;;;;;5100495;28;20115;-87
2021/06/14 06:28:57;;;;;;;7.50;3.20;;;;;;;;;;5100560;28;20032;-87
2021/06/14 06:31:23;;;;;;;9.15;5.05;;;;;;;;;;5099450;28;20314;-87
2021/06/14 06:33:50;;;;;;;8.82;3.13;;;;;;;;;;5099369;28;20318;-87
2021/06/14 06:36:16;;;;;;;9.75;4.55;;;;;;;;;;5100275;28;20410;-87
2021/06/14 06:38:42;;;;;;;5.45;2.90;;;;;;;;;;5098849;28;20036;-87
2021/06/14 06:41:08;;;;;;;13.20;5.70;;;;;;;;;;5100156;28;20025;-87
2021/06/14 06:43:35;;;;;;;9.05;4.90;;;;;;;;;;5100366;28;20024;-87
2021/06/14 06:46:01;;;;;;;6.93;3.15;;;;;;;;;;5100599;28;20024;-87
2021/06/14 06:48:29;;;;;;;6.57;3.42;;;;;;;;;;5099840;28;20107;-88
2021/06/14 06:50:55;;;;;;;6.80;3.28;;;;;;;;;;5097569;28;20020;-87
2021/06/14 06:53:23;;;;;;;8.45;3.40;;;;;;;;;;5099981;28;20113;-87
2021/06/14 06:55:49;;;;;;;6.35;2.97;;;;;;;;;;5099609;28;20103;-88
2021/06/14 06:58:15;;;;;;;7.15;3.70;;;;;;;;;;5099522;28;20028;-88
2021/06/14 07:00:45;;;;;;;11.10;3.95;;;;;;;;;;5098763;28;20412;-87
2021/06/14 07:03:12;;;;;;;7.63;2.80;;;;;;;;;;5099943;28;20020;-88
2021/06/14 07:05:39;;;;;;;8.57;3.20;;;;;;;;;;5099789;28;20356;-88
2021/06/14 07:08:06;;;;;;;5.15;2.42;;;;;;;;;;5099544;28;20059;-87
2021/06/14 07:10:32;;;;;;;9.65;3.15;;;;;;;;;;5098771;28;20056;-86
2021/06/14 07:12:58;;;;;;;8.20;2.30;;;;;;;;;;5098452;28;20299;-87
2021/06/14 07:15:24;;;;;;;9.10;2.70;;;;;;;;;;5099666;28;20020;-88
2021/06/14 07:17:51;;;;;;;6.53;2.60;;;;;;;;;;5099168;28;20032;-87
2021/06/14 07:20:17;;;;;;;6.57;3.00;;;;;;;;;;5099580;28;20032;-87
2021/06/14 07:22:43;;;;;;;6.13;2.83;;;;;;;;;;5099262;28;20020;-87
2021/06/14 07:25:10;;;;;;;9.38;2.65;;;;;;;;;;5099449;28;20103;-87
2021/06/14 07:27:36;;;;;;;10.15;4.13;;;;;;;;;;5098299;28;20043;-87
2021/06/14 07:30:05;;;;;;;5.53;2.92;;;;;;;;;;5099266;28;20107;-87
2021/06/14 07:32:31;;;;;;;7.30;2.95;;;;;;;;;;5098206;28;20405;-86
2021/06/14 07:34:57;;;;;;;14.93;4.25;;;;;;;;;;5098899;28;20405;-86
2021/06/14 07:37:23;;;;;;;10.68;3.50;;;;;;;;;;5099403;28;20040;-87
2021/06/14 07:39:49;;;;;;;6.95;2.40;;;;;;;;;;5099114;28;20020;-87
2021/06/14 07:42:16;;;;;;;5.72;2.85;;;;;;;;;;5098116;28;20031;-87
2021/06/14 07:44:42;;;;;;;7.45;2.92;;;;;;;;;;5098854;28;20112;-87
2021/06/14 07:47:09;;;;;;;6.22;2.17;;;;;;;;;;5098808;28;20040;-87
2021/06/14 07:49:35;;;;;;;5.90;2.85;;;;;;;;;;5098967;28;20050;-87
2021/06/14 07:52:02;;;;;;;11.35;4.72;;;;;;;;;;5098938;28;20047;-87
2021/06/14 07:54:28;;;;;;;8.63;3.72;;;;;;;;;;5098809;28;20016;-87
2021/06/14 07:56:54;;;;;;;5.32;2.80;;;;;;;;;;5098922;28;20047;-88
2021/06/14 07:59:20;;;;;;;9.60;4.93;;;;;;;;;;5098269;28;20069;-87
2021/06/14 08:01:46;;;;;;;8.55;2.30;;;;;;;;;;5097219;28;20035;-87
2021/06/14 08:04:12;;;;;;;6.00;2.22;;;;;;;;;;5098837;28;20027;-87
2021/06/14 08:06:38;;;;;;;5.07;2.13;;;;;;;;;;5098448;28;20035;-88
2021/06/14 08:09:08;;;;;;;8.25;2.70;;;;;;;;;;5098459;28;20295;-88
2021/06/14 08:11:35;;;;;;;8.73;4.93;;;;;;;;;;5098712;28;20035;-88
2021/06/14 08:14:01;;;;;;;8.57;2.88;;;;;;;;;;5097611;28;20024;-88
2021/06/14 08:16:28;;;;;;;6.07;1.70;;;;;;;;;;5097459;28;20066;-88
2021/06/14 08:19:08;;;;;;;7.28;1.92;;;;;;;;;;5097241;28;20326;-87
2021/06/14 08:26:50;;;;;;;4.32;1.83;;;;;;;;;;5097845;28;20027;-88
2021/06/14 08:29:16;;;;;;;11.15;2.40;;;;;;;;;;5097419;28;20024;-88
2021/06/14 08:31:43;;;;;;;5.90;2.22;;;;;;;;;;5098215;28;20028;-87
2021/06/14 08:34:10;;;;;;;7.13;2.28;;;;;;;;;;5098001;28;20437;-88
2021/06/14 08:36:38;;;;;;;5.60;2.00;;;;;;;;;;5097084;28;20119;-88
2021/06/14 08:39:05;;;;;;;7.65;1.40;;;;;;;;;;5098307;28;20020;-87
2021/06/14 08:41:31;;;;;;;5.22;1.80;;;;;;;;;;5079886;28;20036;-87
2021/06/14 08:43:58;;;;;;;5.50;1.83;;;;;;;;;;5097953;28;20024;-87
2021/06/14 08:46:25;;;;;;;5.18;1.50;;;;;;;;;;5095413;28;20409;-87
2021/06/14 08:48:51;;;;;;;3.65;1.88;;;;;;;;;;5083460;28;20033;-85
2021/06/14 08:51:18;;;;;;;3.80;1.92;;;;;;;;;;5076638;28;20472;-87
2021/06/14 08:53:44;;;;;;;6.82;1.63;;;;;;;;;;5077303;28;20035;-88
2021/06/14 08:56:10;;;;;;;3.72;1.67;;;;;;;;;;5077744;28;20024;-86
2021/06/14 08:58:36;;;;;;;5.68;1.83;;;;;;;;;;5077538;28;20028;-87
2021/06/14 09:01:04;;;;;;;4.68;2.00;;;;;;;;;;5077230;28;20032;-88
2021/06/14 09:03:30;;;;;;;5.95;1.42;;;;;;;;;;5076554;28;20063;-87
2021/06/14 09:05:56;;;;;;;6.20;1.63;;;;;;;;;;5077559;28;20117;-87
2021/06/14 09:08:24;;;;;;;10.43;2.58;;;;;;;;;;5077651;28;20322;-87
2021/06/14 09:10:51;;;;;;;6.05;1.52;;;;;;;;;;5077561;28;20021;-88
2021/06/14 09:13:23;;;;;;;3.45;1.70;;;;;;;;;;5077517;28;20024;-88
2021/06/14 09:15:48;;;;;;;;;;;;;;;;;;5078029;28;20021;-88
2021/06/14 09:18:19;;;;;;;4.40;1.75;;;;;;;;;;5076275;28;19904;-87
2021/06/14 09:21:04;;;;;;;5.30;1.55;;;;;;;;;;5076413;28;20040;-87
2021/06/14 09:23:42;;;;;;;3.67;1.55;;;;;;;;;;5077533;28;20398;-88
2021/06/14 09:26:08;;;;;;;5.15;1.40;;;;;;;;;;5076706;28;20112;-87
2021/06/14 09:28:35;;;;;;;4.15;1.50;;;;;;;;;;5076526;28;20037;-84
2021/06/14 09:31:12;;;;;;;3.63;1.67;;;;;;;;;;5077174;28;20020;-79
2021/06/14 09:33:42;;;;;;;4.47;1.80;;;;;;;;;;5077368;28;20021;-87
2021/06/14 09:36:08;;;;;;;3.88;1.33;;;;;;;;;;5077423;28;20043;-87
2021/06/14 09:38:34;;;;;;;4.10;1.58;;;;;;;;;;5077112;28;20025;-88
2021/06/14 09:41:00;;;;;;;4.35;1.60;;;;;;;;;;5079413;28;20465;-88
2021/06/14 09:43:26;;;;;;;3.25;1.40;;;;;;;;;;5081334;28;20049;-87
2021/06/14 09:45:53;;;;;;;4.95;1.60;;;;;;;;;;5081004;28;20041;-88
2021/06/14 09:48:21;;;;;;;4.82;1.50;;;;;;;;;;5080617;28;20056;-87
2021/06/14 09:50:48;;;;;;;7.30;1.83;;;;;;;;;;5080230;28;20045;-87
2021/06/14 09:53:16;;;;;;;5.65;1.35;;;;;;;;;;5081008;28;20047;-87
2021/06/14 09:55:42;;;;;;;4.72;1.58;;;;;;;;;;5081139;28;20024;-86
2021/06/14 09:58:11;;;;;;;5.93;1.60;;;;;;;;;;5080618;28;20036;-87
2021/06/14 10:00:45;;;;;;;4.25;1.55;;;;;;;;;;5080070;28;20161;-86
2021/06/14 10:03:11;;;;;;;3.97;1.40;;;;;;;;;;5079863;28;20441;-87
2021/06/14 10:05:43;;;;;;;5.68;1.73;;;;;;;;;;5079620;28;20036;-86
2021/06/14 10:08:09;;;;;;;9.38;1.80;;;;;;;;;;5080456;28;20073;-87
2021/06/14 10:10:38;;;;;;;4.07;1.45;;;;;;;;;;5079722;28;20056;-86
2021/06/14 10:13:05;;;;;;;8.75;1.70;;;;;;;;;;5081684;28;20024;-87
2021/06/14 10:15:32;;;;;;;5.85;1.83;;;;;;;;;;5081848;28;20016;-88
2021/06/14 10:17:58;;;;;;;4.93;1.60;;;;;;;;;;5080886;28;20330;-88
2021/06/14 10:20:26;;;;;;;6.47;1.70;;;;;;;;;;5081907;28;20035;-88
2021/06/14 10:22:54;;;;;;;3.22;1.35;;;;;;;;;;5080611;28;20418;-88
2021/06/14 10:25:21;;;;;;;4.60;1.38;;;;;;;;;;5081626;28;20025;-89
2021/06/14 10:27:47;;;;;;;4.72;1.20;;;;;;;;;;5079236;28;20029;-88
2021/06/14 10:30:15;;;;;;;2.85;1.52;;;;;;;;;;5079538;28;20036;-89
2021/06/14 10:32:41;;;;;;;4.53;1.48;;;;;;;;;;5080813;28;20024;-89
2021/06/14 10:35:09;;;;;;;3.38;1.60;;;;;;;;;;5080445;28;20025;-89
2021/06/14 10:37:42;;;;;;;5.35;1.52;;;;;;;;;;5080560;28;20073;-89
2021/06/14 10:40:09;;;;;;;5.22;1.52;;;;;;;;;;5079436;28;20058;-89
2021/06/14 10:42:35;;;;;;;3.78;1.58;;;;;;;;;;5079406;28;20105;-87
2021/06/14 10:45:01;;;;;;;4.85;1.42;;;;;;;;;;5079642;28;20040;-87
2021/06/14 10:47:28;;;;;;;2.80;1.58;;;;;;;;;;5081056;28;20078;-88
2021/06/14 10:49:56;;;;;;;5.97;1.88;;;;;;;;;;5079073;28;20437;-87
2021/06/14 10:52:22;;;;;;;6.22;2.00;;;;;;;;;;5079945;28;20063;-89
2021/06/14 10:54:48;;;;;;;5.30;1.60;;;;;;;;;;5081065;28;20092;-89
2021/06/14 10:57:14;;;;;;;4.63;1.75;;;;;;;;;;5080527;28;20070;-88
2021/06/14 10:59:45;;;;;;;5.47;1.77;;;;;;;;;;5079399;28;20041;-88
2021/06/14 11:02:12;;;;;;;3.38;1.40;;;;;;;;;;5079457;28;20414;-87
2021/06/14 11:04:38;;;;;;;13.90;1.80;;;;;;;;;;5082074;28;20039;-88
2021/06/14 11:07:04;;;;;;;4.53;1.65;;;;;;;;;;5083141;28;20032;-88
2021/06/14 11:09:44;;;;;;;8.38;2.88;;;;;;;;;;5082848;28;20029;-87
2021/06/14 11:12:11;;;;;;;4.78;1.90;;;;;;;;;;5083002;28;20024;-88
2021/06/14 11:14:40;;;;;;;4.70;1.60;;;;;;;;;;5083059;28;20104;-88
2021/06/14 11:17:24;;;;;;;8.77;1.88;;;;;;;;;;5081368;28;20036;-86
2021/06/14 11:20:00;;;;;;;13.40;1.67;;;;;;;;;;5082701;28;20048;-87
2021/06/14 11:22:35;;;;;;;5.07;1.35;;;;;;;;;;5082239;28;20150;-88
2021/06/14 11:25:01;;;;;;;2.78;1.42;;;;;;;;;;5080220;28;20033;-87
2021/06/14 11:27:40;;;;;;;4.55;1.50;;;;;;;;;;5078265;28;20303;-87
2021/06/14 11:30:17;;;;;;;2.53;1.50;;;;;;;;;;5079047;28;20422;-87
2021/06/14 11:32:43;;;;;;;10.15;1.80;;;;;;;;;;5078838;28;20077;-86
2021/06/14 11:35:09;;;;;;;4.63;1.38;;;;;;;;;;5078724;28;20039;-87
2021/06/14 11:37:37;;;;;;;3.50;1.50;;;;;;;;;;5078849;28;20428;-87
2021/06/14 11:40:03;;;;;;;7.55;1.60;;;;;;;;;;5079117;28;20081;-86
2021/06/14 11:42:41;;;;;;;3.20;1.50;;;;;;;;;;5079097;28;20021;-88
2021/06/14 11:45:09;;;;;;;4.90;1.50;;;;;;;;;;5079103;28;20078;-87
2021/06/14 11:47:39;;;;;;;3.88;1.58;;;;;;;;;;5077550;28;20072;-86
2021/06/14 11:50:10;;;;;;;5.68;2.25;;;;;;;;;;5078941;28;20016;-86
2021/06/14 11:52:37;;;;;;;5.57;1.42;;;;;;;;;;5079231;28;20066;-86
2021/06/14 11:55:08;;;;;;;1.90;1.40;;;;;;;;;;5078537;28;20092;-83
2021/06/14 11:57:44;;;;;;;2.77;1.30;;;;;;;;;;5077517;28;20119;-86
2021/06/14 12:00:12;;;;;;;3.13;2.03;;;;;;;;;;5078773;28;20328;-87
2021/06/14 12:02:38;;;;;;;3.15;1.55;;;;;;;;;;5078501;28;20027;-87
2021/06/14 12:05:06;;;;;;;5.22;2.33;;;;;;;;;;5076328;28;20027;-88
2021/06/14 12:07:40;;;;;;;3.83;2.10;;;;;;;;;;5078433;28;20032;-87
2021/06/14 12:10:11;;;;;;;6.82;2.97;;;;;;;;;;5078167;28;20028;-87
2021/06/14 12:12:38;;;;;;;6.70;3.33;;;;;;;;;;5078600;28;20386;-87
2021/06/14 12:15:05;;;;;;;8.65;1.80;;;;;;;;;;5078098;28;20282;-87
2021/06/14 12:17:36;;;;;;;4.28;2.10;;;;;;;;;;5078267;28;20024;-87
2021/06/14 12:20:04;;;;;;;8.02;3.05;;;;;;;;;;5078311;28;20303;-87
2021/06/14 12:22:30;;;;;;;4.97;3.20;;;;;;;;;;5077969;28;20039;-87
2021/06/14 12:25:07;;;;;;;4.22;2.22;;;;;;;;;;5078033;28;20029;-88
2021/06/14 12:27:33;;;;;;;3.58;1.65;;;;;;;;;;5077051;28;20037;-87
2021/06/14 12:30:00;;;;;;;3.92;1.83;;;;;;;;;;5077635;28;20013;-88
2021/06/14 12:32:28;;;;;;;7.43;2.05;;;;;;;;;;5077745;28;20027;-88
2021/06/14 12:34:57;;;;;;;5.13;2.05;;;;;;;;;;5077655;28;20025;-78
2021/06/14 12:37:24;;;;;;;4.85;3.00;;;;;;;;;;5077426;28;20128;-77
2021/06/14 12:40:07;;;;;;;13.85;2.58;;;;;;;;;;5076086;28;20025;-77
2021/06/14 12:42:34;;;;;;;2.63;1.40;;;;;;;;;;5076098;28;20056;-77
2021/06/14 12:45:10;;;;;;;1.80;1.20;;;;;;;;;;5077223;28;20066;-77
2021/06/14 12:47:47;;;;;;;4.15;1.35;;;;;;;;;;5077173;28;20052;-77
2021/06/14 12:50:19;;;;;;;100.60;81.82;;;;;;;;;;5076917;28;20024;-77
2021/06/14 12:52:45;;;;;;;121.53;90.63;;;;;;;;;;5077014;28;20017;-77
2021/06/14 12:55:21;;;;;;;39.00;29.05;;;;;;;;;;5077072;28;20081;-77
2021/06/14 12:57:48;;;;;;;9.30;3.92;;;;;;;;;;5075926;28;20044;-77
2021/06/14 13:00:16;;;;;;;12.30;7.25;;;;;;;;;;5077111;28;20066;-77
2021/06/14 13:02:42;;;;;;;19.85;14.60;;;;;;;;;;5076980;28;20110;-79
2021/06/14 13:05:13;;;;;;;9.30;6.85;;;;;;;;;;5075871;28;20032;-78
2021/06/14 13:07:39;;;;;;;6.60;4.75;;;;;;;;;;5076380;28;20063;-78
2021/06/14 13:10:13;;;;;;;6.45;3.35;;;;;;;;;;5076931;28;20028;-78
2021/06/14 13:12:39;;;;;;;23.67;18.08;;;;;;;;;;5075941;28;20017;-78
2021/06/14 13:15:07;;;;;;;30.15;22.55;;;;;;;;;;5077978;28;20047;-77
2021/06/14 13:17:33;;;;;;;4.13;2.15;;;;;;;;;;5081051;28;20040;-77
2021/06/14 13:19:59;;;;;;;6.25;2.45;;;;;;;;;;5080816;28;20392;-77
2021/06/14 13:22:33;;;;;;;4.57;1.30;;;;;;;;;;5081134;28;20031;-77
2021/06/14 13:25:06;;;;;;;4.03;1.30;;;;;;;;;;5080799;28;20399;-77
2021/06/14 13:27:33;;;;;;;2.28;1.20;;;;;;;;;;5080817;28;20044;-77
2021/06/14 13:29:59;;;;;;;5.22;1.33;;;;;;;;;;5080713;28;20311;-78
2021/06/14 13:32:31;;;;;;;4.00;1.67;;;;;;;;;;5080613;28;20024;-77
2021/06/14 13:35:01;;;;;;;3.35;1.40;;;;;;;;;;5080613;28;20101;-77
2021/06/14 13:37:40;;;;;;;4.30;1.45;;;;;;;;;;5080749;28;20089;-77
2021/06/14 13:40:07;;;;;;;3.13;1.75;;;;;;;;;;5079569;28;20485;-77
2021/06/14 13:42:41;;;;;;;4.82;2.67;;;;;;;;;;5080703;28;20028;-77
2021/06/14 13:45:07;;;;;;;4.97;1.70;;;;;;;;;;5079415;28;20070;-77
2021/06/14 13:47:33;;;;;;;7.28;1.80;;;;;;;;;;5079849;28;20426;-78
2021/06/14 13:50:04;;;;;;;5.00;1.70;;;;;;;;;;5080315;28;20403;-77
2021/06/14 13:52:30;;;;;;;3.28;1.83;;;;;;;;;;5080473;28;20036;-77
2021/06/14 13:54:58;;;;;;;8.15;2.03;;;;;;;;;;5080439;28;20032;-77
2021/06/14 13:57:24;;;;;;;5.90;1.70;;;;;;;;;;5080418;28;20039;-77
2021/06/14 13:59:50;;;;;;;3.15;1.60;;;;;;;;;;5080114;28;20016;-77
2021/06/14 14:02:18;;;;;;;2.35;1.38;;;;;;;;;;5079336;28;20434;-78
2021/06/14 14:04:45;;;;;;;5.75;1.98;;;;;;;;;;5079055;28;20119;-78
2021/06/14 14:07:11;;;;;;;8.50;2.40;;;;;;;;;;5079015;28;20029;-77
2021/06/14 14:09:37;;;;;;;15.68;7.00;;;;;;;;;;5079223;28;20327;-78
2021/06/14 14:12:04;;;;;;;6.00;2.53;;;;;;;;;;5079016;28;20020;-78
2021/06/14 14:14:30;;;;;;;12.57;2.53;;;;;;;;;;5078939;28;20107;-78
2021/06/14 14:16:56;;;;;;;10.93;2.63;;;;;;;;;;5079908;28;20027;-78
2021/06/14 14:19:24;;;;;;;10.80;1.80;;;;;;;;;;5079966;28;20048;-78
2021/06/14 14:21:50;;;;;;;9.38;2.20;;;;;;;;;;5079858;28;20028;-78
2021/06/14 14:24:20;;;;;;;5.63;1.92;;;;;;;;;;5079931;28;20418;-78
2021/06/14 14:26:49;;;;;;;4.05;1.63;;;;;;;;;;5078574;28;20122;-78
2021/06/14 14:29:16;;;;;;;4.47;1.88;;;;;;;;;;5079691;28;20062;-78
2021/06/14 14:31:44;;;;;;;4.57;1.60;;;;;;;;;;5078606;28;20032;-78
2021/06/14 14:34:10;;;;;;;5.47;1.95;;;;;;;;;;5079509;28;20453;-78
2021/06/14 14:36:42;;;;;;;6.53;2.15;;;;;;;;;;5079664;28;20024;-78
2021/06/14 14:39:14;;;;;;;7.93;1.92;;;;;;;;;;5078411;28;20021;-78
2021/06/14 14:41:40;;;;;;;8.48;2.15;;;;;;;;;;5079485;28;20028;-77
2021/06/14 14:44:06;;;;;;;6.82;1.92;;;;;;;;;;5079362;28;20035;-78
2021/06/14 14:46:32;;;;;;;10.60;2.35;;;;;;;;;;5078103;28;20434;-78
2021/06/14 14:48:59;;;;;;;5.53;2.13;;;;;;;;;;5079182;28;20063;-78